LPE26X SPTU-SPJC
Flight info
| Callsign | LPE26X |
|---|---|
| Flight time | 1h 26m |
| Altitude | 34000 |
| Route | PUMSA UT332 UDENI UT321 PEROV |
| Aircraft | A20N/M-SDE2E3FGHIRWXY/LB1 |
Departure
| Time | 2026-04-26 20:06 |
|---|---|
| Airport | Padre Aldamiz International Airport (SPTU) |
Arrival
| Time | 2026-04-26 21:32 |
|---|---|
| Airport | Jorge Chávez International Airport (SPJC) |
| Time | Latitude | Longitude | Altitude | Speed | Heading |
|---|---|---|---|---|---|
| 2026-04-26 19:46 | -12.60389 | -69.22205 | 665 ft | 0 kts | 95° |
| 2026-04-26 19:59 | -12.60389 | -69.22202 | 665 ft | 2 kts | 92° |
| 2026-04-26 19:59 | -12.60385 | -69.22199 | 665 ft | 0 kts | 40° |
| 2026-04-26 19:59 | -12.60383 | -69.22200 | 665 ft | 0 kts | 16° |
| 2026-04-26 19:59 | -12.60381 | -69.22201 | 665 ft | 0 kts | 354° |
| 2026-04-26 20:00 | -12.60377 | -69.22205 | 665 ft | 3 kts | 328° |
| 2026-04-26 20:00 | -12.60342 | -69.22227 | 665 ft | 9 kts | 328° |
| 2026-04-26 20:00 | -12.60306 | -69.22290 | 665 ft | 13 kts | 276° |
| 2026-04-26 20:00 | -12.60301 | -69.22393 | 665 ft | 16 kts | 272° |
| 2026-04-26 20:01 | -12.60296 | -69.22523 | 665 ft | 20 kts | 271° |
| 2026-04-26 20:01 | -12.60290 | -69.22685 | 664 ft | 24 kts | 272° |
| 2026-04-26 20:01 | -12.60289 | -69.22732 | 664 ft | 0 kts | 272° |
| 2026-04-26 20:01 | -12.60288 | -69.22744 | 664 ft | 5 kts | 272° |
| 2026-04-26 20:02 | -12.60287 | -69.22797 | 664 ft | 10 kts | 264° |
| 2026-04-26 20:02 | -12.60346 | -69.22830 | 664 ft | 13 kts | 181° |
| 2026-04-26 20:02 | -12.60454 | -69.22835 | 664 ft | 19 kts | 182° |
| 2026-04-26 20:02 | -12.60501 | -69.22836 | 664 ft | 21 kts | 182° |
| 2026-04-26 20:03 | -12.60803 | -69.22848 | 667 ft | 31 kts | 181° |
| 2026-04-26 20:03 | -12.61041 | -69.22857 | 667 ft | 37 kts | 181° |
| 2026-04-26 20:03 | -12.61306 | -69.22868 | 668 ft | 43 kts | 182° |
| 2026-04-26 20:03 | -12.61664 | -69.22884 | 666 ft | 61 kts | 182° |
| 2026-04-26 20:04 | -12.62082 | -69.22897 | 666 ft | 30 kts | 182° |
| 2026-04-26 20:04 | -12.62333 | -69.22906 | 667 ft | 40 kts | 181° |
| 2026-04-26 20:04 | -12.62605 | -69.22915 | 668 ft | 40 kts | 181° |
| 2026-04-26 20:04 | -12.62848 | -69.22917 | 667 ft | 9 kts | 146° |
| 2026-04-26 20:05 | -12.62903 | -69.22885 | 668 ft | 13 kts | 165° |
| 2026-04-26 20:05 | -12.62934 | -69.22934 | 668 ft | 0 kts | 302° |
| 2026-04-26 20:05 | -12.62892 | -69.22928 | 668 ft | 19 kts | 27° |
| 2026-04-26 20:05 | -12.62781 | -69.22923 | 669 ft | 51 kts | 4° |
| 2026-04-26 20:06 | -12.62091 | -69.22896 | 667 ft | 142 kts | 2° |
| 2026-04-26 20:06 | -12.60899 | -69.22840 | 938 ft | 192 kts | 3° |
| 2026-04-26 20:06 | -12.59435 | -69.22703 | 1448 ft | 229 kts | 7° |
| 2026-04-26 20:06 | -12.57852 | -69.22452 | 2007 ft | 231 kts | 10° |
| 2026-04-26 20:07 | -12.56297 | -69.22143 | 2513 ft | 224 kts | 16° |
| 2026-04-26 20:07 | -12.55053 | -69.21223 | 2985 ft | 234 kts | 60° |
| 2026-04-26 20:07 | -12.54870 | -69.19590 | 3491 ft | 242 kts | 106° |
| 2026-04-26 20:07 | -12.55926 | -69.18203 | 4033 ft | 263 kts | 149° |
| 2026-04-26 20:08 | -12.57705 | -69.17848 | 4534 ft | 266 kts | 191° |
| 2026-04-26 20:08 | -12.59355 | -69.18641 | 5405 ft | 267 kts | 222° |
| 2026-04-26 20:08 | -12.60428 | -69.20120 | 6715 ft | 258 kts | 246° |
| 2026-04-26 20:08 | -12.61169 | -69.21811 | 7694 ft | 264 kts | 247° |
| 2026-04-26 20:09 | -12.61908 | -69.23543 | 8689 ft | 267 kts | 247° |
| 2026-04-26 20:09 | -12.62659 | -69.25303 | 9454 ft | 265 kts | 247° |
| 2026-04-26 20:09 | -12.63392 | -69.27006 | 9521 ft | 265 kts | 247° |
| 2026-04-26 20:09 | -12.64161 | -69.28786 | 9683 ft | 285 kts | 247° |
| 2026-04-26 20:10 | -12.64977 | -69.30670 | 10500 ft | 289 kts | 247° |
| 2026-04-26 20:10 | -12.65780 | -69.32522 | 11483 ft | 290 kts | 246° |
| 2026-04-26 20:10 | -12.66607 | -69.34431 | 12374 ft | 295 kts | 246° |
| 2026-04-26 20:10 | -12.67446 | -69.36365 | 13261 ft | 299 kts | 246° |
| 2026-04-26 20:11 | -12.68312 | -69.38364 | 13786 ft | 318 kts | 246° |
| 2026-04-26 20:11 | -12.69247 | -69.40520 | 14013 ft | 343 kts | 246° |
| 2026-04-26 20:11 | -12.70248 | -69.42828 | 14253 ft | 365 kts | 246° |
| 2026-04-26 20:12 | -12.72341 | -69.47661 | 15616 ft | 375 kts | 246° |
| 2026-04-26 20:12 | -12.73390 | -69.50086 | 16294 ft | 380 kts | 246° |
| 2026-04-26 20:12 | -12.74469 | -69.52577 | 16987 ft | 385 kts | 246° |
| 2026-04-26 20:12 | -12.75558 | -69.55094 | 17648 ft | 385 kts | 246° |
| 2026-04-26 20:13 | -12.76647 | -69.57612 | 17904 ft | 392 kts | 246° |
| 2026-04-26 20:13 | -12.77759 | -69.60183 | 18509 ft | 396 kts | 246° |
| 2026-04-26 20:13 | -12.78874 | -69.62761 | 19179 ft | 397 kts | 246° |
| 2026-04-26 20:13 | -12.79995 | -69.65355 | 19792 ft | 400 kts | 246° |
| 2026-04-26 20:14 | -12.81124 | -69.67968 | 20384 ft | 403 kts | 246° |
| 2026-04-26 20:14 | -12.82253 | -69.70580 | 20825 ft | 400 kts | 246° |
| 2026-04-26 20:14 | -12.83243 | -69.73242 | 21079 ft | 409 kts | 254° |
| 2026-04-26 20:14 | -12.83809 | -69.76095 | 21721 ft | 410 kts | 263° |
| 2026-04-26 20:15 | -12.83924 | -69.79021 | 22310 ft | 413 kts | 272° |
| 2026-04-26 20:15 | -12.83776 | -69.81976 | 22867 ft | 417 kts | 272° |
| 2026-04-26 20:15 | -12.83630 | -69.84953 | 23424 ft | 420 kts | 272° |
| 2026-04-26 20:15 | -12.83487 | -69.87957 | 23896 ft | 423 kts | 272° |
| 2026-04-26 20:16 | -12.83392 | -69.89950 | 24215 ft | 425 kts | 272° |
| 2026-04-26 20:16 | -12.83199 | -69.94008 | 24858 ft | 427 kts | 272° |
| 2026-04-26 20:16 | -12.83054 | -69.97014 | 25323 ft | 430 kts | 273° |
| 2026-04-26 20:16 | -12.82906 | -70.00080 | 25773 ft | 432 kts | 273° |
| 2026-04-26 20:17 | -12.82757 | -70.03163 | 26211 ft | 435 kts | 273° |
| 2026-04-26 20:17 | -12.82607 | -70.06270 | 26652 ft | 437 kts | 273° |
| 2026-04-26 20:17 | -12.82455 | -70.09394 | 27055 ft | 440 kts | 273° |
| 2026-04-26 20:17 | -12.82354 | -70.11472 | 27322 ft | 442 kts | 273° |
| 2026-04-26 20:18 | -12.82148 | -70.15701 | 27869 ft | 446 kts | 273° |
| 2026-04-26 20:18 | -12.81995 | -70.18840 | 28246 ft | 449 kts | 273° |
| 2026-04-26 20:18 | -12.81837 | -70.22042 | 28637 ft | 451 kts | 273° |
| 2026-04-26 20:18 | -12.81679 | -70.25256 | 29019 ft | 454 kts | 273° |
| 2026-04-26 20:19 | -12.81519 | -70.28494 | 29396 ft | 456 kts | 273° |
| 2026-04-26 20:19 | -12.81358 | -70.31749 | 29767 ft | 459 kts | 273° |
| 2026-04-26 20:19 | -12.81196 | -70.35025 | 30103 ft | 461 kts | 273° |
| 2026-04-26 20:19 | -12.81032 | -70.38311 | 30434 ft | 464 kts | 273° |
| 2026-04-26 20:20 | -12.80867 | -70.41618 | 30770 ft | 466 kts | 273° |
| 2026-04-26 20:20 | -12.80701 | -70.44940 | 31140 ft | 467 kts | 274° |
| 2026-04-26 20:20 | -12.80537 | -70.48215 | 31554 ft | 467 kts | 274° |
| 2026-04-26 20:20 | -12.80370 | -70.51534 | 32022 ft | 466 kts | 274° |
| 2026-04-26 20:21 | -12.80204 | -70.54843 | 32478 ft | 465 kts | 274° |
| 2026-04-26 20:21 | -12.80041 | -70.58085 | 32599 ft | 448 kts | 274° |
| 2026-04-26 20:21 | -12.80037 | -70.58169 | 32584 ft | 448 kts | 274° |
| 2026-04-26 20:21 | -12.79892 | -70.61039 | 32227 ft | 444 kts | 274° |
| 2026-04-26 20:22 | -12.79731 | -70.64192 | 31919 ft | 444 kts | 274° |
| 2026-04-26 20:22 | -12.79460 | -70.69493 | 31912 ft | 455 kts | 274° |
| 2026-04-26 20:22 | -12.79238 | -70.73831 | 32105 ft | 464 kts | 274° |
| 2026-04-26 20:23 | -12.79069 | -70.77140 | 32460 ft | 465 kts | 274° |
| 2026-04-26 20:23 | -12.78899 | -70.80444 | 32908 ft | 464 kts | 274° |
| 2026-04-26 20:23 | -12.78787 | -70.82630 | 33205 ft | 463 kts | 274° |
| 2026-04-26 20:23 | -12.78618 | -70.85923 | 33629 ft | 463 kts | 274° |
| 2026-04-26 20:24 | -12.78448 | -70.89207 | 33859 ft | 461 kts | 274° |
| 2026-04-26 20:24 | -12.78053 | -70.96815 | 33897 ft | 459 kts | 274° |
| 2026-04-26 20:25 | -12.77768 | -71.02290 | 33903 ft | 460 kts | 274° |
| 2026-04-26 20:25 | -12.77370 | -71.09883 | 33901 ft | 459 kts | 274° |
| 2026-04-26 20:26 | -12.77084 | -71.15312 | 33902 ft | 459 kts | 274° |
| 2026-04-26 20:26 | -12.76738 | -71.21842 | 33911 ft | 459 kts | 274° |
| 2026-04-26 20:27 | -12.76392 | -71.28361 | 33913 ft | 458 kts | 274° |
| 2026-04-26 20:27 | -12.76045 | -71.34880 | 33916 ft | 458 kts | 274° |
| 2026-04-26 20:28 | -12.75698 | -71.41351 | 33921 ft | 458 kts | 274° |
| 2026-04-26 20:28 | -12.75347 | -71.47863 | 33933 ft | 458 kts | 274° |
| 2026-04-26 20:29 | -12.74996 | -71.54380 | 33953 ft | 458 kts | 274° |
| 2026-04-26 20:29 | -12.74642 | -71.60860 | 33972 ft | 459 kts | 274° |
| 2026-04-26 20:30 | -12.74286 | -71.67383 | 33990 ft | 459 kts | 274° |
| 2026-04-26 20:30 | -12.73928 | -71.73911 | 34007 ft | 459 kts | 274° |
| 2026-04-26 20:31 | -12.73568 | -71.80446 | 34023 ft | 460 kts | 274° |
| 2026-04-26 20:31 | -12.73206 | -71.86988 | 34042 ft | 461 kts | 274° |
| 2026-04-26 20:32 | -12.72844 | -71.93496 | 34048 ft | 461 kts | 274° |
| 2026-04-26 20:32 | -12.72478 | -72.00055 | 34063 ft | 461 kts | 274° |
| 2026-04-26 20:33 | -12.72108 | -72.06620 | 34064 ft | 462 kts | 274° |
| 2026-04-26 20:33 | -12.71737 | -72.13184 | 34061 ft | 461 kts | 274° |
| 2026-04-26 20:34 | -12.71369 | -72.19693 | 34053 ft | 460 kts | 274° |
| 2026-04-26 20:34 | -12.70998 | -72.26236 | 34046 ft | 460 kts | 274° |
| 2026-04-26 20:35 | -12.70624 | -72.32780 | 34033 ft | 460 kts | 274° |
| 2026-04-26 20:35 | -12.70249 | -72.39328 | 34022 ft | 461 kts | 274° |
| 2026-04-26 20:36 | -12.69874 | -72.45836 | 34015 ft | 462 kts | 274° |
| 2026-04-26 20:36 | -12.69493 | -72.52404 | 34011 ft | 462 kts | 274° |
| 2026-04-26 20:37 | -12.69112 | -72.58969 | 33997 ft | 462 kts | 274° |
| 2026-04-26 20:37 | -12.68728 | -72.65549 | 33994 ft | 463 kts | 274° |
| 2026-04-26 20:38 | -12.68345 | -72.72089 | 33993 ft | 463 kts | 274° |
| 2026-04-26 20:38 | -12.67959 | -72.78674 | 33986 ft | 464 kts | 274° |
| 2026-04-26 20:39 | -12.67569 | -72.85268 | 33985 ft | 464 kts | 274° |
| 2026-04-26 20:39 | -12.67177 | -72.91862 | 33983 ft | 464 kts | 274° |
| 2026-04-26 20:40 | -12.66784 | -72.98453 | 33978 ft | 464 kts | 275° |
| 2026-04-26 20:40 | -12.66392 | -73.05007 | 33974 ft | 464 kts | 274° |
| 2026-04-26 20:41 | -12.65998 | -73.11597 | 33973 ft | 464 kts | 275° |
| 2026-04-26 20:41 | -12.65597 | -73.18183 | 33970 ft | 464 kts | 275° |
| 2026-04-26 20:42 | -12.65198 | -73.24777 | 33976 ft | 464 kts | 275° |
| 2026-04-26 20:42 | -12.64802 | -73.31319 | 33980 ft | 463 kts | 275° |
| 2026-04-26 20:43 | -12.64400 | -73.37896 | 33978 ft | 463 kts | 275° |
| 2026-04-26 20:43 | -12.63996 | -73.44473 | 33985 ft | 463 kts | 275° |
| 2026-04-26 20:44 | -12.63591 | -73.51050 | 33989 ft | 463 kts | 275° |
| 2026-04-26 20:44 | -12.63184 | -73.57623 | 33992 ft | 463 kts | 275° |
| 2026-04-26 20:45 | -12.62780 | -73.64152 | 33997 ft | 462 kts | 275° |
| 2026-04-26 20:45 | -12.62371 | -73.70716 | 33993 ft | 462 kts | 275° |
| 2026-04-26 20:46 | -12.61960 | -73.77277 | 34001 ft | 462 kts | 275° |
| 2026-04-26 20:46 | -12.61547 | -73.83847 | 34005 ft | 463 kts | 275° |
| 2026-04-26 20:47 | -12.61136 | -73.90374 | 34018 ft | 463 kts | 275° |
| 2026-04-26 20:47 | -12.60721 | -73.96955 | 34018 ft | 463 kts | 275° |
| 2026-04-26 20:48 | -12.60301 | -74.03540 | 34020 ft | 464 kts | 275° |
| 2026-04-26 20:48 | -12.59880 | -74.10129 | 34025 ft | 464 kts | 275° |
| 2026-04-26 20:49 | -12.59461 | -74.16673 | 34030 ft | 464 kts | 275° |
| 2026-04-26 20:49 | -12.59037 | -74.23267 | 34034 ft | 464 kts | 275° |
| 2026-04-26 20:50 | -12.58611 | -74.29866 | 34043 ft | 464 kts | 275° |
| 2026-04-26 20:50 | -12.58184 | -74.36452 | 34039 ft | 464 kts | 275° |
| 2026-04-26 20:51 | -12.57758 | -74.42995 | 34044 ft | 464 kts | 275° |
| 2026-04-26 20:51 | -12.57328 | -74.49586 | 34047 ft | 464 kts | 275° |
| 2026-04-26 20:52 | -12.56896 | -74.56179 | 34049 ft | 464 kts | 275° |
| 2026-04-26 20:52 | -12.56462 | -74.62766 | 34054 ft | 464 kts | 275° |
| 2026-04-26 20:53 | -12.56030 | -74.69310 | 34064 ft | 464 kts | 275° |
| 2026-04-26 20:53 | -12.55593 | -74.75901 | 34065 ft | 464 kts | 275° |
| 2026-04-26 20:54 | -12.55155 | -74.82491 | 34065 ft | 464 kts | 275° |
| 2026-04-26 20:54 | -12.54716 | -74.89073 | 34068 ft | 464 kts | 275° |
| 2026-04-26 20:55 | -12.54277 | -74.95618 | 34073 ft | 464 kts | 275° |
| 2026-04-26 20:55 | -12.53834 | -75.02194 | 34069 ft | 460 kts | 275° |
| 2026-04-26 20:55 | -12.53620 | -75.05396 | 34067 ft | 442 kts | 276° |
| 2026-04-26 20:56 | -12.53414 | -75.08475 | 34066 ft | 425 kts | 276° |
| 2026-04-26 20:56 | -12.53215 | -75.11435 | 34067 ft | 408 kts | 276° |
| 2026-04-26 20:56 | -12.53024 | -75.14273 | 34068 ft | 392 kts | 276° |
| 2026-04-26 20:56 | -12.52839 | -75.16999 | 34066 ft | 376 kts | 276° |
| 2026-04-26 20:57 | -12.52662 | -75.19612 | 34074 ft | 361 kts | 276° |
| 2026-04-26 20:57 | -12.52311 | -75.24716 | 34076 ft | 368 kts | 276° |
| 2026-04-26 20:58 | -12.51590 | -75.29865 | 34076 ft | 364 kts | 286° |
| 2026-04-26 20:58 | -12.50435 | -75.34882 | 33767 ft | 360 kts | 285° |
| 2026-04-26 20:58 | -12.49871 | -75.37371 | 33403 ft | 358 kts | 285° |
| 2026-04-26 20:59 | -12.49311 | -75.39844 | 32981 ft | 355 kts | 285° |
| 2026-04-26 20:59 | -12.48763 | -75.42262 | 32583 ft | 352 kts | 285° |
| 2026-04-26 20:59 | -12.48211 | -75.44692 | 32191 ft | 349 kts | 285° |
| 2026-04-26 20:59 | -12.47663 | -75.47100 | 31797 ft | 346 kts | 285° |
| 2026-04-26 21:00 | -12.47119 | -75.49487 | 31415 ft | 343 kts | 285° |
| 2026-04-26 21:00 | -12.46579 | -75.51854 | 31042 ft | 341 kts | 285° |
| 2026-04-26 21:00 | -12.46042 | -75.54209 | 30657 ft | 338 kts | 285° |
| 2026-04-26 21:00 | -12.45510 | -75.56545 | 30298 ft | 336 kts | 285° |
| 2026-04-26 21:01 | -12.44981 | -75.58863 | 29896 ft | 334 kts | 285° |
| 2026-04-26 21:01 | -12.44455 | -75.61170 | 29458 ft | 332 kts | 285° |
| 2026-04-26 21:01 | -12.43939 | -75.63429 | 29056 ft | 329 kts | 285° |
| 2026-04-26 21:01 | -12.43420 | -75.65704 | 28655 ft | 327 kts | 285° |
| 2026-04-26 21:02 | -12.42903 | -75.67961 | 28278 ft | 324 kts | 285° |
| 2026-04-26 21:02 | -12.42395 | -75.70183 | 28129 ft | 318 kts | 285° |
| 2026-04-26 21:02 | -12.41889 | -75.72399 | 28104 ft | 323 kts | 285° |
| 2026-04-26 21:03 | -12.40857 | -75.76899 | 28109 ft | 324 kts | 285° |
| 2026-04-26 21:03 | -12.39837 | -75.81358 | 28117 ft | 324 kts | 285° |
| 2026-04-26 21:04 | -12.38809 | -75.85848 | 28121 ft | 324 kts | 285° |
| 2026-04-26 21:04 | -12.37782 | -75.90326 | 28001 ft | 322 kts | 285° |
| 2026-04-26 21:04 | -12.37271 | -75.92552 | 27661 ft | 322 kts | 285° |
| 2026-04-26 21:05 | -12.36754 | -75.94802 | 26999 ft | 330 kts | 284° |
| 2026-04-26 21:05 | -12.36217 | -75.97129 | 26214 ft | 343 kts | 284° |
| 2026-04-26 21:05 | -12.35667 | -75.99519 | 25379 ft | 357 kts | 284° |
| 2026-04-26 21:05 | -12.35091 | -76.02025 | 24646 ft | 367 kts | 283° |
| 2026-04-26 21:06 | -12.34515 | -76.04536 | 24468 ft | 356 kts | 283° |
| 2026-04-26 21:06 | -12.33983 | -76.06962 | 24374 ft | 344 kts | 282° |
| 2026-04-26 21:06 | -12.33482 | -76.09310 | 24293 ft | 332 kts | 282° |
| 2026-04-26 21:06 | -12.33001 | -76.11572 | 24196 ft | 320 kts | 282° |
| 2026-04-26 21:07 | -12.32535 | -76.13754 | 24110 ft | 308 kts | 282° |
| 2026-04-26 21:07 | -12.32082 | -76.15863 | 23922 ft | 301 kts | 282° |
| 2026-04-26 21:07 | -12.31632 | -76.17947 | 23576 ft | 300 kts | 282° |
| 2026-04-26 21:07 | -12.31191 | -76.19993 | 23203 ft | 298 kts | 282° |
| 2026-04-26 21:08 | -12.30746 | -76.22053 | 22830 ft | 296 kts | 282° |
| 2026-04-26 21:08 | -12.30303 | -76.24102 | 22463 ft | 294 kts | 283° |
| 2026-04-26 21:08 | -12.29866 | -76.26136 | 22109 ft | 292 kts | 283° |
| 2026-04-26 21:08 | -12.29432 | -76.28157 | 21770 ft | 290 kts | 283° |
| 2026-04-26 21:09 | -12.29002 | -76.30166 | 21424 ft | 288 kts | 283° |
| 2026-04-26 21:09 | -12.28574 | -76.32163 | 21106 ft | 286 kts | 283° |
| 2026-04-26 21:09 | -12.28150 | -76.34140 | 20814 ft | 282 kts | 283° |
| 2026-04-26 21:09 | -12.27738 | -76.36060 | 20587 ft | 281 kts | 283° |
| 2026-04-26 21:10 | -12.27315 | -76.38020 | 20347 ft | 284 kts | 283° |
| 2026-04-26 21:10 | -12.26892 | -76.39987 | 20108 ft | 282 kts | 283° |
| 2026-04-26 21:10 | -12.26474 | -76.41929 | 19872 ft | 278 kts | 284° |
| 2026-04-26 21:10 | -12.26058 | -76.43862 | 19634 ft | 278 kts | 284° |
| 2026-04-26 21:11 | -12.25644 | -76.45783 | 19405 ft | 277 kts | 284° |
| 2026-04-26 21:11 | -12.25228 | -76.47706 | 19179 ft | 277 kts | 284° |
| 2026-04-26 21:11 | -12.24813 | -76.49623 | 18942 ft | 275 kts | 284° |
| 2026-04-26 21:11 | -12.24407 | -76.51502 | 18731 ft | 274 kts | 284° |
| 2026-04-26 21:12 | -12.23996 | -76.53398 | 18493 ft | 272 kts | 284° |
| 2026-04-26 21:12 | -12.23588 | -76.55284 | 18188 ft | 271 kts | 284° |
| 2026-04-26 21:12 | -12.23182 | -76.57159 | 17834 ft | 270 kts | 284° |
| 2026-04-26 21:12 | -12.22778 | -76.59024 | 17495 ft | 268 kts | 284° |
| 2026-04-26 21:13 | -12.22375 | -76.60877 | 17170 ft | 266 kts | 284° |
| 2026-04-26 21:13 | -12.21975 | -76.62721 | 16847 ft | 265 kts | 283° |
| 2026-04-26 21:13 | -12.21577 | -76.64551 | 16521 ft | 263 kts | 283° |
| 2026-04-26 21:13 | -12.21180 | -76.66375 | 16187 ft | 262 kts | 283° |
| 2026-04-26 21:14 | -12.20784 | -76.68185 | 15866 ft | 260 kts | 283° |
| 2026-04-26 21:14 | -12.20394 | -76.69958 | 15565 ft | 259 kts | 283° |
| 2026-04-26 21:14 | -12.20001 | -76.71747 | 15259 ft | 257 kts | 283° |
| 2026-04-26 21:14 | -12.19611 | -76.73522 | 14966 ft | 255 kts | 283° |
| 2026-04-26 21:15 | -12.19223 | -76.75286 | 14667 ft | 254 kts | 283° |
| 2026-04-26 21:15 | -12.18838 | -76.77038 | 14367 ft | 252 kts | 283° |
| 2026-04-26 21:15 | -12.18455 | -76.78780 | 14089 ft | 250 kts | 282° |
| 2026-04-26 21:15 | -12.18075 | -76.80510 | 13806 ft | 249 kts | 282° |
| 2026-04-26 21:16 | -12.17698 | -76.82229 | 13502 ft | 247 kts | 282° |
| 2026-04-26 21:16 | -12.17329 | -76.83911 | 13184 ft | 246 kts | 282° |
| 2026-04-26 21:16 | -12.16956 | -76.85611 | 12870 ft | 244 kts | 282° |
| 2026-04-26 21:16 | -12.16615 | -76.87166 | 12589 ft | 243 kts | 282° |
| 2026-04-26 21:17 | -12.16246 | -76.88847 | 12287 ft | 242 kts | 282° |
| 2026-04-26 21:17 | -12.15878 | -76.90520 | 11984 ft | 241 kts | 282° |
| 2026-04-26 21:17 | -12.15513 | -76.92184 | 11698 ft | 239 kts | 282° |
| 2026-04-26 21:17 | -12.15149 | -76.93838 | 11414 ft | 238 kts | 282° |
| 2026-04-26 21:18 | -12.14788 | -76.95487 | 11134 ft | 237 kts | 282° |
| 2026-04-26 21:18 | -12.14431 | -76.97126 | 10858 ft | 236 kts | 282° |
| 2026-04-26 21:18 | -12.14079 | -76.98736 | 10589 ft | 235 kts | 282° |
| 2026-04-26 21:18 | -12.13726 | -77.00354 | 10316 ft | 234 kts | 282° |
| 2026-04-26 21:19 | -12.13372 | -77.01974 | 10058 ft | 233 kts | 282° |
| 2026-04-26 21:19 | -12.13019 | -77.03585 | 9810 ft | 231 kts | 282° |
| 2026-04-26 21:19 | -12.12669 | -77.05182 | 9526 ft | 230 kts | 282° |
| 2026-04-26 21:19 | -12.12321 | -77.06772 | 9237 ft | 229 kts | 282° |
| 2026-04-26 21:20 | -12.11975 | -77.08353 | 8952 ft | 228 kts | 282° |
| 2026-04-26 21:20 | -12.11629 | -77.09933 | 8671 ft | 227 kts | 282° |
| 2026-04-26 21:20 | -12.11286 | -77.11503 | 8396 ft | 226 kts | 282° |
| 2026-04-26 21:20 | -12.10948 | -77.13047 | 8126 ft | 225 kts | 283° |
| 2026-04-26 21:21 | -12.10606 | -77.14606 | 7860 ft | 224 kts | 283° |
| 2026-04-26 21:21 | -12.10265 | -77.16158 | 7600 ft | 224 kts | 283° |
| 2026-04-26 21:21 | -12.09925 | -77.17705 | 7348 ft | 222 kts | 284° |
| 2026-04-26 21:21 | -12.09241 | -77.19094 | 7066 ft | 221 kts | 315° |
| 2026-04-26 21:22 | -12.07961 | -77.19934 | 6786 ft | 220 kts | 335° |
| 2026-04-26 21:22 | -12.06580 | -77.20600 | 6548 ft | 219 kts | 335° |
| 2026-04-26 21:22 | -12.05209 | -77.21265 | 6300 ft | 218 kts | 334° |
| 2026-04-26 21:23 | -12.02505 | -77.22594 | 5807 ft | 216 kts | 334° |
| 2026-04-26 21:23 | -12.01157 | -77.23263 | 5558 ft | 215 kts | 334° |
| 2026-04-26 21:23 | -11.99822 | -77.23950 | 5307 ft | 214 kts | 333° |
| 2026-04-26 21:23 | -11.98502 | -77.24645 | 5088 ft | 213 kts | 333° |
| 2026-04-26 21:24 | -11.97186 | -77.25340 | 4851 ft | 213 kts | 333° |
| 2026-04-26 21:24 | -11.95876 | -77.26028 | 4625 ft | 211 kts | 333° |
| 2026-04-26 21:24 | -11.94570 | -77.26711 | 4379 ft | 211 kts | 333° |
| 2026-04-26 21:24 | -11.93268 | -77.27391 | 4144 ft | 210 kts | 333° |
| 2026-04-26 21:25 | -11.91990 | -77.28057 | 3911 ft | 209 kts | 333° |
| 2026-04-26 21:25 | -11.90690 | -77.28707 | 3696 ft | 208 kts | 334° |
| 2026-04-26 21:25 | -11.89389 | -77.29341 | 3476 ft | 207 kts | 335° |
| 2026-04-26 21:25 | -11.88092 | -77.29971 | 3261 ft | 206 kts | 334° |
| 2026-04-26 21:26 | -11.86802 | -77.30600 | 3037 ft | 205 kts | 334° |
| 2026-04-26 21:26 | -11.85475 | -77.31123 | 2772 ft | 206 kts | 353° |
| 2026-04-26 21:26 | -11.84087 | -77.30881 | 2502 ft | 206 kts | 29° |
| 2026-04-26 21:26 | -11.83096 | -77.29853 | 2225 ft | 206 kts | 63° |
| 2026-04-26 21:27 | -11.82493 | -77.28563 | 2118 ft | 205 kts | 66° |
| 2026-04-26 21:27 | -11.81902 | -77.27224 | 2108 ft | 207 kts | 66° |
| 2026-04-26 21:27 | -11.81303 | -77.25893 | 2104 ft | 206 kts | 65° |
| 2026-04-26 21:27 | -11.80783 | -77.24537 | 2101 ft | 205 kts | 83° |
| 2026-04-26 21:28 | -11.81001 | -77.23123 | 2115 ft | 205 kts | 120° |
| 2026-04-26 21:28 | -11.81974 | -77.22089 | 2111 ft | 204 kts | 146° |
| 2026-04-26 21:28 | -11.83148 | -77.21278 | 2102 ft | 203 kts | 146° |
| 2026-04-26 21:28 | -11.84305 | -77.20451 | 2108 ft | 203 kts | 148° |
| 2026-04-26 21:29 | -11.85521 | -77.19719 | 2109 ft | 203 kts | 153° |
| 2026-04-26 21:29 | -11.86762 | -77.19070 | 2105 ft | 203 kts | 154° |
| 2026-04-26 21:29 | -11.88034 | -77.18435 | 2104 ft | 204 kts | 155° |
| 2026-04-26 21:29 | -11.89308 | -77.17804 | 2102 ft | 203 kts | 155° |
| 2026-04-26 21:30 | -11.90580 | -77.17174 | 2106 ft | 203 kts | 155° |
| 2026-04-26 21:30 | -11.91858 | -77.16541 | 2014 ft | 205 kts | 155° |
| 2026-04-26 21:30 | -11.93153 | -77.15899 | 1729 ft | 207 kts | 155° |
| 2026-04-26 21:30 | -11.94422 | -77.15271 | 1443 ft | 199 kts | 155° |
| 2026-04-26 21:31 | -11.95697 | -77.14641 | 1179 ft | 205 kts | 156° |
| 2026-04-26 21:31 | -11.96958 | -77.14018 | 910 ft | 204 kts | 156° |
| 2026-04-26 21:31 | -11.98233 | -77.13390 | 650 ft | 213 kts | 155° |
| 2026-04-26 21:31 | -11.99532 | -77.12740 | 354 ft | 202 kts | 156° |
| 2026-04-26 21:32 | -12.00756 | -77.12134 | 108 ft | 189 kts | 155° |
| 2026-04-26 21:32 | -12.01848 | -77.11606 | 64 ft | 143 kts | 153° |
| 2026-04-26 21:32 | -12.02472 | -77.11297 | 89 ft | 56 kts | 155° |
| 2026-04-26 21:32 | -12.02643 | -77.11213 | 93 ft | 33 kts | 155° |
| 2026-04-26 21:33 | -12.02824 | -77.11076 | 98 ft | 34 kts | 130° |
| 2026-04-26 21:33 | -12.02934 | -77.10919 | 100 ft | 19 kts | 125° |
| 2026-04-26 21:33 | -12.02953 | -77.10861 | 99 ft | 5 kts | 45° |
| 2026-04-26 21:33 | -12.02900 | -77.10870 | 99 ft | 12 kts | 332° |
| 2026-04-26 21:34 | -12.02800 | -77.10919 | 96 ft | 16 kts | 338° |
| 2026-04-26 21:34 | -12.02684 | -77.10978 | 94 ft | 21 kts | 335° |
| 2026-04-26 21:34 | -12.02588 | -77.11027 | 92 ft | 0 kts | 333° |
| 2026-04-26 21:35 | -12.02579 | -77.11031 | 96 ft | 6 kts | 333° |
| 2026-04-26 21:35 | -12.02498 | -77.11070 | 91 ft | 19 kts | 334° |
| 2026-04-26 21:35 | -12.02395 | -77.11114 | 89 ft | 11 kts | 355° |
| 2026-04-26 21:35 | -12.02305 | -77.11099 | 90 ft | 12 kts | 12° |
| 2026-04-26 21:36 | -12.02289 | -77.11090 | 92 ft | 0 kts | 47° |
| 2026-04-26 21:36 | -12.02290 | -77.11083 | 91 ft | 4 kts | 84° |
| 2026-04-26 21:36 | -12.02311 | -77.11065 | 91 ft | 8 kts | 152° |
| 2026-04-26 21:37 | -12.02338 | -77.11038 | 92 ft | 4 kts | 88° |
| 2026-04-26 21:37 | -12.02315 | -77.10981 | 92 ft | 9 kts | 64° |
| 2026-04-26 21:37 | -12.02311 | -77.10971 | 94 ft | 4 kts | 64° |
| 2026-04-26 21:37 | -12.02310 | -77.10970 | 91 ft | 0 kts | 64° |